Terminal Aerodrome Forecast
Issued by NWS Shreveport, LA

Home | Current Version | Previous Version | Text Only | Print | Product List | Glossary On
Versions: 1 2 3 4 5 6 7 8 9 10 11 12 13 14 15 16 17 18 19
000
FTUS44 KSHV 281007 AAA
TAFLFK
TAF AMD
KLFK 281007Z 2810/2906 VRB03KT P6SM VCSH SCT045 SCT070 BKN100
      TEMPO 2810/2812 -RA SCT045 BKN070
     FM281300 04004KT P6SM VCSH SCT004 SCT045 BKN070
     FM281600 05006KT P6SM VCSH SCT017 SCT045 BKN100
     FM281800 07009KT P6SM VCSH BKN030
     FM282000 08009KT P6SM VCTS BKN035CB
     FM290100 08003KT P6SM VCSH SCT045 BKN120 BKN250=

USA.gov is the U.S. government's official web portal to all federal, state and local government web resources and services.